Time;durP1;ratioP1;P1;durP2;ratioP2;P2;SDS_P1;SDS_P2;PMS_P1;PMS_P2;Temp;Humidity;BMP_temperature;BMP_pressure;BME280_temperature;BME280_humidity;BME280_pressure;Samples;Min_cycle;Max_cycle;Signal;HPM_P1;HPM_P2
2023/01/06 00:02:39;;;;;;;104.30;70.53;;;10.80;99.90;;;;;;5070792;28;20071;-70
2023/01/06 00:05:43;;;;;;;107.32;72.18;;;10.70;99.90;;;;;;5070940;28;20047;-70
2023/01/06 00:08:48;;;;;;;99.20;64.25;;;;;;;;;;5070929;28;20052;-70
2023/01/06 00:11:52;;;;;;;97.93;62.90;;;;;;;;;;5070612;28;20056;-70
2023/01/06 00:14:57;;;;;;;101.32;64.47;;;10.70;99.90;;;;;;5070759;28;20067;-70
2023/01/06 00:18:01;;;;;;;104.53;61.33;;;;;;;;;;5070887;28;20067;-70
2023/01/06 00:21:06;;;;;;;102.25;69.85;;;10.80;99.90;;;;;;5071275;28;20495;-70
2023/01/06 00:24:10;;;;;;;110.95;69.28;;;11.00;99.90;;;;;;5070424;28;20043;-70
2023/01/06 00:27:14;;;;;;;105.05;65.00;;;;;;;;;;5070211;28;20051;-70
2023/01/06 00:30:19;;;;;;;96.32;66.47;;;;;;;;;;5069730;28;20047;-70
2023/01/06 00:33:24;;;;;;;99.20;65.72;;;10.60;99.90;;;;;;5072129;28;20412;-70
2023/01/06 00:36:28;;;;;;;108.88;71.20;;;;;;;;;;5074318;28;20047;-70
2023/01/06 00:39:32;;;;;;;105.45;69.10;;;;;;;;;;5074145;28;20130;-70
2023/01/06 00:42:36;;;;;;;108.80;68.93;;;;;;;;;;5073108;28;20044;-70
2023/01/06 00:45:41;;;;;;;106.97;70.18;;;;;;;;;;5073178;28;20039;-70
2023/01/06 00:48:45;;;;;;;101.63;66.20;;;;;;;;;;5074073;28;20039;-70
2023/01/06 00:51:50;;;;;;;101.68;66.47;;;;;;;;;;5073876;28;20043;-69
2023/01/06 00:54:54;;;;;;;99.97;67.95;;;;;;;;;;5073816;28;20388;-70
2023/01/06 00:57:58;;;;;;;108.78;68.68;;;12.00;99.90;;;;;;5074019;28;20043;-69
2023/01/06 01:01:07;;;;;;;110.85;71.25;;;10.60;99.90;;;;;;5073735;28;20047;-69
2023/01/06 01:04:12;;;;;;;112.88;70.22;;;;;;;;;;5073135;28;20527;-70
2023/01/06 01:07:16;;;;;;;95.65;62.75;;;10.40;99.90;;;;;;5073796;28;20051;-70
2023/01/06 01:10:20;;;;;;;95.15;65.22;;;;;;;;;;5073000;28;20051;-71
2023/01/06 01:13:25;;;;;;;97.07;64.15;;;;;;;;;;5061122;28;20058;-70
2023/01/06 01:16:29;;;;;;;99.47;65.45;;;;;;;;;;5072824;28;20515;-69
2023/01/06 01:19:35;;;;;;;90.75;63.72;;;;;;;;;;5073382;28;20078;-70
2023/01/06 01:22:39;;;;;;;94.82;63.30;;;;;;;;;;5073605;28;20047;-70
2023/01/06 01:25:43;;;;;;;97.22;62.45;;;;;;;;;;5073429;28;20503;-69
2023/01/06 01:28:48;;;;;;;91.93;59.65;;;;;;;;;;5073560;28;20044;-69
2023/01/06 01:31:52;;;;;;;85.72;56.42;;;10.00;99.90;;;;;;5072402;28;20051;-70
2023/01/06 01:34:56;;;;;;;92.10;57.08;;;;;;;;;;5072357;28;20044;-70
2023/01/06 01:38:01;;;;;;;83.90;56.35;;;;;;;;;;5072952;28;20068;-70
2023/01/06 01:41:05;;;;;;;91.85;58.22;;;11.30;99.90;;;;;;5073191;28;20056;-70
2023/01/06 01:44:47;;;;;;;91.70;56.35;;;10.00;99.90;;;;;;5072226;28;20129;-69
2023/01/06 01:48:04;;;;;;;100.30;59.45;;;10.00;99.90;;;;;;5072372;28;20511;-69
2023/01/06 01:51:12;;;;;;;90.28;57.60;;;10.00;99.90;;;;;;5072875;28;20052;-69
2023/01/06 01:54:23;;;;;;;93.85;59.10;;;10.10;99.90;;;;;;5071966;28;20039;-69
2023/01/06 01:57:36;;;;;;;92.20;59.17;;;10.50;99.90;;;;;;5072884;28;20044;-69
2023/01/06 02:00:42;;;;;;;79.25;53.55;;;10.50;99.90;;;;;;5072836;28;20051;-69
2023/01/06 02:03:47;;;;;;;65.97;43.22;;;;;;;;;;5072597;28;20048;-69
2023/01/06 02:06:52;;;;;;;70.07;43.35;;;;;;;;;;5071773;28;20052;-69
2023/01/06 02:10:09;;;;;;;57.63;36.47;;;10.40;99.90;;;;;;5072590;28;20063;-69
2023/01/06 02:13:14;;;;;;;51.95;31.55;;;;;;;;;;5071844;28;20059;-70
2023/01/06 02:16:21;;;;;;;56.03;32.20;;;;;;;;;;5071988;28;20040;-70
2023/01/06 02:19:35;;;;;;;53.20;33.05;;;;;;;;;;5071531;28;20047;-70
2023/01/06 02:23:16;;;;;;;53.10;31.58;;;10.00;99.90;;;;;;5071767;28;20043;-70
2023/01/06 02:26:20;;;;;;;53.45;31.38;;;;;;;;;;5071171;28;20051;-70
2023/01/06 02:29:59;;;;;;;63.53;36.58;;;9.90;99.90;;;;;;5072054;28;20059;-69
2023/01/06 02:33:06;;;;;;;54.07;33.63;;;;;;;;;;5069150;28;20047;-69
2023/01/06 02:36:43;;;;;;;51.83;33.63;;;10.40;99.90;;;;;;5071258;28;20044;-69
2023/01/06 02:40:18;;;;;;;51.08;33.35;;;10.00;99.90;;;;;;5070977;28;20059;-69
2023/01/06 02:43:38;;;;;;;57.33;36.58;;;10.00;99.90;;;;;;5071347;28;20599;-69
2023/01/06 02:47:07;;;;;;;60.53;39.78;;;11.80;99.90;;;;;;5072099;28;20502;-69
2023/01/06 02:50:45;;;;;;;58.42;37.30;;;9.30;99.90;;;;;;5070964;28;20404;-69
2023/01/06 02:54:11;;;;;;;62.70;39.53;;;10.00;99.90;;;;;;5070691;28;20396;-69
2023/01/06 02:57:15;;;;;;;64.85;36.67;;;;;;;;;;5071221;28;20047;-69
2023/01/06 03:00:33;;;;;;;61.15;39.20;;;10.10;99.90;;;;;;5070928;28;20044;-70
2023/01/06 03:03:43;;;;;;;55.55;37.05;;;10.10;99.90;;;;;;5070455;28;20036;-70
2023/01/06 03:06:50;;;;;;;56.47;35.30;;;10.00;99.90;;;;;;5070895;28;20185;-69
2023/01/06 03:09:56;;;;;;;55.53;35.58;;;10.20;99.90;;;;;;5070523;28;20392;-70
2023/01/06 03:13:14;;;;;;;56.88;35.83;;;11.40;99.90;;;;;;5070264;28;20055;-70
2023/01/06 03:16:19;;;;;;;53.25;33.85;;;10.60;99.90;;;;;;5071044;28;20043;-70
2023/01/06 03:19:24;;;;;;;51.90;34.28;;;;;;;;;;5071105;28;20047;-70
2023/01/06 03:22:32;;;;;;;54.88;32.38;;;10.40;99.90;;;;;;5070495;28;20218;-69
2023/01/06 03:25:37;;;;;;;50.83;31.67;;;9.00;99.90;;;;;;5071084;28;20051;-69
2023/01/06 03:28:41;;;;;;;43.95;28.92;;;;;;;;;;5070588;28;20063;-69
2023/01/06 03:32:12;;;;;;;43.63;30.13;;;10.30;99.90;;;;;;5070453;28;20048;-70
2023/01/06 03:35:27;;;;;;;45.25;26.65;;;10.10;99.90;;;;;;5071279;28;20198;-69
2023/01/06 03:38:39;;;;;;;44.05;27.95;;;10.20;99.90;;;;;;5070175;28;20051;-69
2023/01/06 03:45:15;;;;;;;46.13;26.98;;;;;;;;;;5070538;28;20043;-70
2023/01/06 03:48:43;;;;;;;45.28;29.27;;;;;;;;;;5071190;28;20043;-70
2023/01/06 03:51:53;;;;;;;49.10;28.67;;;9.80;99.90;;;;;;5066384;28;20495;-69
2023/01/06 03:55:07;;;;;;;47.58;29.67;;;9.80;99.90;;;;;;5069844;28;20043;-70
2023/01/06 03:58:14;;;;;;;46.58;28.30;;;9.80;99.90;;;;;;5070333;28;20047;-69
2023/01/06 04:01:19;;;;;;;46.90;28.83;;;10.40;99.90;;;;;;5069980;28;20047;-70
2023/01/06 04:04:24;;;;;;;42.45;27.95;;;;;;;;;;5069853;28;20040;-69
2023/01/06 04:07:29;;;;;;;48.33;28.63;;;;;;;;;;5070338;28;20043;-69
2023/01/06 04:10:34;;;;;;;44.20;29.33;;;;;;;;;;5074077;28;20043;-69
2023/01/06 04:13:38;;;;;;;45.15;27.63;;;9.50;99.90;;;;;;5074237;28;20044;-69
2023/01/06 04:16:43;;;;;;;44.72;27.80;;;;;;;;;;5074229;28;20044;-69
2023/01/06 04:19:47;;;;;;;45.83;28.83;;;;;;;;;;5073898;28;20333;-69
2023/01/06 04:22:56;;;;;;;46.50;28.35;;;10.60;99.90;;;;;;5074821;28;20055;-70
2023/01/06 04:26:01;;;;;;;50.20;27.52;;;;;;;;;;5073806;28;20499;-70
2023/01/06 04:29:12;;;;;;;41.65;28.25;;;;;;;;;;5073741;28;20060;-69
2023/01/06 04:32:16;;;;;;;49.25;27.85;;;9.30;99.90;;;;;;5074493;28;20396;-69
2023/01/06 04:35:21;;;;;;;44.15;26.42;;;;;;;;;;5073819;28;20412;-69
2023/01/06 04:38:25;;;;;;;39.25;26.27;;;9.70;99.90;;;;;;5073809;28;20206;-69
2023/01/06 04:41:31;;;;;;;39.78;26.02;;;9.20;99.90;;;;;;5074421;28;20603;-68
2023/01/06 04:44:34;;;;;;;41.95;26.60;;;9.20;99.90;;;;;;5074345;28;20043;-68
2023/01/06 04:47:39;;;;;;;41.20;26.23;;;8.80;99.90;;;;;;5074361;28;20048;-68
2023/01/06 04:50:44;;;;;;;45.05;25.40;;;9.00;99.90;;;;;;5074242;28;20047;-68
2023/01/06 04:53:47;;;;;;;39.80;25.80;;;9.10;99.90;;;;;;5073821;28;20515;-68
2023/01/06 04:56:51;;;;;;;40.72;26.27;;;8.80;99.90;;;;;;5073053;28;20063;-70
2023/01/06 04:59:56;;;;;;;38.22;25.20;;;8.90;99.90;;;;;;5073827;28;20400;-69
2023/01/06 05:03:00;;;;;;;32.08;24.30;;;;;;;;;;5073917;28;20039;-69
2023/01/06 05:06:10;;;;;;;39.33;25.77;;;9.10;99.90;;;;;;5073976;28;20400;-68
2023/01/06 05:09:14;;;;;;;37.83;25.05;;;9.00;99.90;;;;;;5073710;28;20043;-68
2023/01/06 05:12:17;;;;;;;42.03;24.67;;;9.00;99.90;;;;;;5073642;28;20043;-69
2023/01/06 05:15:21;;;;;;;36.13;25.23;;;8.90;99.90;;;;;;5072831;28;20043;-70
2023/01/06 05:18:25;;;;;;;39.17;25.15;;;7.70;99.90;;;;;;5073219;28;20043;-69
2023/01/06 05:21:30;;;;;;;40.78;24.08;;;9.60;99.90;;;;;;5073234;28;20530;-70
2023/01/06 05:24:34;;;;;;;33.25;22.77;;;;;;;;;;5073527;28;20044;-70
2023/01/06 05:27:38;;;;;;;35.53;23.42;;;9.00;99.90;;;;;;5073061;28;20403;-70
2023/01/06 05:30:42;;;;;;;36.42;21.65;;;8.70;99.90;;;;;;5073415;28;20151;-70
2023/01/06 05:33:46;;;;;;;34.67;22.48;;;9.40;99.90;;;;;;5073303;28;20048;-70
2023/01/06 05:36:50;;;;;;;37.78;21.88;;;10.10;99.90;;;;;;5073328;28;20048;-69
2023/01/06 05:39:53;;;;;;;39.15;22.75;;;8.80;99.90;;;;;;5073039;28;20055;-70
2023/01/06 05:42:58;;;;;;;37.20;22.63;;;11.00;99.90;;;;;;5073170;28;20067;-70
2023/01/06 05:46:06;;;;;;;35.00;21.48;;;8.80;99.90;;;;;;5073099;28;20055;-69
2023/01/06 05:49:10;;;;;;;34.30;21.13;;;8.80;99.90;;;;;;5073309;28;20043;-69
2023/01/06 05:52:14;;;;;;;35.20;21.45;;;8.60;99.90;;;;;;5073215;28;20399;-69
2023/01/06 05:55:18;;;;;;;38.45;23.00;;;11.60;99.90;;;;;;5072970;28;20049;-69
2023/01/06 05:58:22;;;;;;;32.78;21.98;;;8.80;99.90;;;;;;5072900;28;20084;-69
2023/01/06 06:01:28;;;;;;;30.90;19.80;;;8.70;99.90;;;;;;5073117;28;20055;-70
2023/01/06 06:04:34;;;;;;;33.33;19.63;;;;;;;;;;5072719;28;20047;-69
2023/01/06 06:07:38;;;;;;;35.88;21.27;;;8.80;99.90;;;;;;5072828;28;20039;-69
2023/01/06 06:10:42;;;;;;;34.15;21.00;;;9.30;99.90;;;;;;5072599;28;20043;-69
2023/01/06 06:13:55;;;;;;;34.50;22.88;;;9.80;99.90;;;;;;5072369;28;20503;-69
2023/01/06 06:16:58;;;;;;;33.83;20.45;;;8.70;99.90;;;;;;5072589;28;20059;-69
2023/01/06 06:20:03;;;;;;;34.25;21.05;;;8.60;99.90;;;;;;5072467;28;20048;-69
2023/01/06 06:23:07;;;;;;;32.90;20.52;;;;;;;;;;5072497;28;20044;-70
2023/01/06 06:26:12;;;;;;;37.70;22.55;;;;;;;;;;5071986;28;20063;-69
2023/01/06 06:29:15;;;;;;;35.38;22.50;;;8.40;99.90;;;;;;5072136;28;20039;-69
2023/01/06 06:32:19;;;;;;;39.40;22.45;;;8.90;99.90;;;;;;5071862;28;20041;-69
2023/01/06 06:35:23;;;;;;;40.33;23.40;;;8.90;99.90;;;;;;5072463;28;20036;-69
2023/01/06 06:38:28;;;;;;;36.25;23.02;;;;;;;;;;5071967;28;20043;-69
2023/01/06 06:41:32;;;;;;;38.80;24.25;;;9.00;99.90;;;;;;5072005;28;20507;-69
2023/01/06 06:44:36;;;;;;;41.40;25.30;;;;;;;;;;5071857;28;20044;-70
2023/01/06 06:47:40;;;;;;;38.03;22.58;;;8.90;99.90;;;;;;5072081;28;20047;-70
2023/01/06 06:50:44;;;;;;;36.45;21.00;;;8.40;99.90;;;;;;5071712;28;20044;-70
2023/01/06 06:53:49;;;;;;;34.88;21.40;;;8.80;99.90;;;;;;5071694;28;20142;-70
2023/01/06 06:56:53;;;;;;;49.35;25.15;;;8.80;99.90;;;;;;5071905;28;20044;-70
2023/01/06 07:00:00;;;;;;;34.78;21.40;;;8.80;99.90;;;;;;5071369;28;20063;-70
2023/01/06 07:03:04;;;;;;;36.63;21.10;;;8.80;99.90;;;;;;5071196;28;20039;-70
2023/01/06 07:06:12;;;;;;;42.47;22.02;;;8.80;99.90;;;;;;5071600;28;20051;-70
2023/01/06 07:09:16;;;;;;;33.03;20.70;;;9.10;99.90;;;;;;5071434;28;20039;-70
2023/01/06 07:12:20;;;;;;;31.77;20.85;;;9.10;99.90;;;;;;5071282;28;20064;-70
2023/01/06 07:15:24;;;;;;;36.45;22.65;;;9.10;99.90;;;;;;5071401;28;20052;-70
2023/01/06 07:18:28;;;;;;;71.97;41.50;;;9.10;99.90;;;;;;5071033;28;20420;-70
2023/01/06 07:21:31;;;;;;;55.65;34.63;;;9.00;99.90;;;;;;5071357;28;20055;-70
2023/01/06 07:24:35;;;;;;;65.15;38.13;;;8.80;99.90;;;;;;5071199;28;20039;-71
2023/01/06 07:27:39;;;;;;;61.65;33.08;;;9.70;99.90;;;;;;5071115;28;20503;-71
2023/01/06 07:30:43;;;;;;;50.53;29.33;;;9.40;99.90;;;;;;5071270;28;20051;-70
2023/01/06 07:33:48;;;;;;;58.65;32.30;;;9.40;99.90;;;;;;5070723;28;20040;-69
2023/01/06 07:36:52;;;;;;;54.90;31.67;;;;;;;;;;5071195;28;20051;-70
2023/01/06 07:39:56;;;;;;;62.88;32.65;;;;;;;;;;5071053;28;20050;-71
2023/01/06 07:43:05;;;;;;;51.67;31.08;;;9.60;99.90;;;;;;5070315;28;20367;-71
2023/01/06 07:46:09;;;;;;;57.67;33.53;;;9.60;99.90;;;;;;5070962;28;20039;-70
2023/01/06 07:49:13;;;;;;;54.30;32.75;;;;;;;;;;5070840;28;20331;-69
2023/01/06 07:52:17;;;;;;;54.60;30.63;;;9.90;99.90;;;;;;5071006;28;20047;-69
2023/01/06 07:55:21;;;;;;;40.17;26.67;;;;;;;;;;5070882;28;20055;-69
2023/01/06 07:58:26;;;;;;;43.88;26.33;;;10.60;99.90;;;;;;5071114;28;20048;-69
2023/01/06 08:01:30;;;;;;;45.25;29.75;;;11.00;99.90;;;;;;5070442;28;20059;-69
2023/01/06 08:04:34;;;;;;;47.45;28.88;;;10.80;99.90;;;;;;5071541;28;20385;-69
2023/01/06 08:07:38;;;;;;;52.88;29.10;;;;;;;;;;5071105;28;20503;-69
2023/01/06 08:10:43;;;;;;;51.03;29.17;;;;;;;;;;5070770;28;20400;-71
2023/01/06 08:13:46;;;;;;;44.85;26.17;;;10.00;99.90;;;;;;5070500;28;20055;-70
2023/01/06 08:16:50;;;;;;;105.75;29.52;;;11.10;99.90;;;;;;5070510;28;20040;-70
2023/01/06 08:19:55;;;;;;;51.05;27.30;;;;;;;;;;5070227;28;20059;-69
2023/01/06 08:22:59;;;;;;;46.97;26.20;;;11.80;99.90;;;;;;5070608;28;20476;-69
2023/01/06 08:26:05;;;;;;;47.13;28.23;;;12.40;99.90;;;;;;5070496;28;20075;-70
2023/01/06 08:29:09;;;;;;;47.55;28.13;;;;;;;;;;5070490;28;20048;-69
2023/01/06 08:32:13;;;;;;;41.90;26.40;;;;;;;;;;5070524;28;20083;-69
2023/01/06 08:35:18;;;;;;;36.78;23.58;;;12.40;99.90;;;;;;5070415;28;20048;-70
2023/01/06 08:38:22;;;;;;;38.72;24.10;;;;;;;;;;5070398;28;20051;-69
2023/01/06 08:41:26;;;;;;;33.50;22.67;;;;;;;;;;5070327;28;20036;-70
2023/01/06 08:44:30;;;;;;;31.73;21.40;;;;;;;;;;5070587;28;20059;-70
2023/01/06 08:47:35;;;;;;;28.10;20.67;;;;;;;;;;5070530;28;20043;-71
2023/01/06 08:50:40;;;;;;;34.75;21.35;;;16.40;99.90;;;;;;5070533;28;20056;-71
2023/01/06 08:53:46;;;;;;;25.17;18.73;;;;;;;;;;5070674;28;20036;-71
2023/01/06 08:56:50;;;;;;;32.47;19.35;;;;;;;;;;5074033;28;20047;-71
2023/01/06 08:59:54;;;;;;;31.10;20.40;;;13.80;99.90;;;;;;5073812;28;20055;-71
2023/01/06 09:02:58;;;;;;;36.97;21.48;;;13.30;99.90;;;;;;5073743;28;20039;-71
2023/01/06 09:06:02;;;;;;;34.42;22.17;;;14.50;99.90;;;;;;5073596;28;20043;-71
2023/01/06 09:09:06;;;;;;;36.65;23.75;;;14.70;99.90;;;;;;5073549;28;20039;-70
2023/01/06 09:12:13;;;;;;;40.45;24.70;;;14.80;99.90;;;;;;5073941;28;20047;-69
2023/01/06 09:15:17;;;;;;;46.05;28.90;;;14.80;99.90;;;;;;5074168;28;20043;-69
2023/01/06 09:18:21;;;;;;;39.53;28.42;;;15.10;99.90;;;;;;5074881;28;20071;-72
2023/01/06 09:21:25;;;;;;;36.40;25.90;;;15.30;99.90;;;;;;5073684;28;20051;-70
2023/01/06 09:24:29;;;;;;;34.33;23.50;;;15.40;99.90;;;;;;5073415;28;20043;-70
2023/01/06 09:27:32;;;;;;;38.10;23.35;;;15.40;99.90;;;;;;5073242;28;20063;-70
2023/01/06 09:30:36;;;;;;;34.70;25.02;;;15.60;99.90;;;;;;5073538;28;20043;-70
2023/01/06 09:33:40;;;;;;;35.97;23.83;;;15.70;99.90;;;;;;5073430;28;20047;-69
2023/01/06 09:36:44;;;;;;;33.55;23.70;;;15.80;99.90;;;;;;5073504;28;20600;-69
2023/01/06 09:39:48;;;;;;;25.58;18.60;;;15.90;99.90;;;;;;5072226;28;20538;-71
2023/01/06 09:43:01;;;;;;;27.48;17.35;;;16.10;99.50;;;;;;5073030;28;20055;-71
2023/01/06 09:46:07;;;;;;;23.35;15.35;;;16.30;99.30;;;;;;5073003;28;20100;-71
2023/01/06 09:49:24;;;;;;;21.70;15.43;;;16.50;98.60;;;;;;5072591;28;20043;-71
2023/01/06 09:52:35;;;;;;;22.05;15.52;;;16.50;98.50;;;;;;5071823;28;20519;-71
2023/01/06 09:55:59;;;;;;;21.45;14.75;;;16.60;98.60;;;;;;5072929;28;20535;-71
2023/01/06 09:59:29;;;;;;;27.85;16.35;;;16.80;98.40;;;;;;5072913;28;20051;-71
2023/01/06 10:02:39;;;;;;;25.60;19.05;;;17.00;98.10;;;;;;5072780;28;20052;-71
2023/01/06 10:06:02;;;;;;;23.90;17.73;;;17.10;98.00;;;;;;5071477;28;20400;-71
2023/01/06 10:10:00;;;;;;;27.60;18.10;;;17.20;97.70;;;;;;5071983;28;20047;-71
2023/01/06 10:13:22;;;;;;;28.90;19.15;;;17.40;97.50;;;;;;5053540;28;20055;-71
2023/01/06 10:16:32;;;;;;;31.65;22.50;;;17.60;97.50;;;;;;5072377;28;20044;-71
2023/01/06 10:20:04;;;;;;;25.90;20.55;;;17.70;97.30;;;;;;5072121;28;20039;-71
2023/01/06 10:23:23;;;;;;;23.83;17.75;;;17.80;97.40;;;;;;5072309;28;20055;-71
2023/01/06 10:26:30;;;;;;;25.27;16.75;;;17.90;96.90;;;;;;5071872;28;20055;-71
2023/01/06 10:29:37;;;;;;;24.00;17.38;;;18.00;96.80;;;;;;5072326;28;20043;-71
2023/01/06 10:32:41;;;;;;;23.10;17.40;;;18.00;96.50;;;;;;5072183;28;20491;-71
2023/01/06 10:35:45;;;;;;;25.02;17.55;;;18.00;96.40;;;;;;5071819;28;20063;-71
2023/01/06 10:38:52;;;;;;;26.02;17.30;;;18.10;96.40;;;;;;5071884;28;20039;-71
2023/01/06 10:45:47;;;;;;;21.67;14.98;;;18.10;95.90;;;;;;5071629;28;20059;-71
2023/01/06 10:48:51;;;;;;;21.13;14.20;;;18.20;96.00;;;;;;5070912;28;20052;-71
2023/01/06 10:52:01;;;;;;;20.30;14.68;;;18.00;94.90;;;;;;5071523;28;20539;-71
2023/01/06 10:55:06;;;;;;;25.92;16.08;;;18.10;95.10;;;;;;5071485;28;20039;-71
2023/01/06 10:58:33;;;;;;;30.73;16.60;;;18.10;95.20;;;;;;5071173;28;20036;-71
2023/01/06 11:01:53;;;;;;;33.20;18.33;;;18.20;95.40;;;;;;5071194;28;20047;-71
2023/01/06 11:05:00;;;;;;;25.55;17.33;;;18.30;95.30;;;;;;5071617;28;20060;-71
2023/01/06 11:08:12;;;;;;;23.92;17.15;;;18.30;95.20;;;;;;5071480;28;20043;-71
2023/01/06 11:11:17;;;;;;;;;;;18.30;95.00;;;;;;5071433;28;20520;-71
2023/01/06 11:14:26;;;;;;;25.08;15.68;;;18.30;94.90;;;;;;5071753;28;19915;-71
2023/01/06 11:17:30;;;;;;;24.63;14.55;;;18.30;94.70;;;;;;5071016;28;20044;-71
2023/01/06 11:20:34;;;;;;;15.98;11.45;;;18.30;94.70;;;;;;5070950;28;20048;-71
2023/01/06 11:23:40;;;;;;;19.42;12.20;;;18.20;94.20;;;;;;5071597;28;20483;-71
2023/01/06 11:26:53;;;;;;;17.45;11.65;;;18.20;94.30;;;;;;5070772;28;20407;-71
2023/01/06 11:29:57;;;;;;;15.52;9.60;;;18.10;94.60;;;;;;5070893;28;20039;-71
2023/01/06 11:33:01;;;;;;;15.68;8.57;;;18.10;94.20;;;;;;5070864;28;20047;-71
2023/01/06 11:36:11;;;;;;;10.80;6.78;;;18.00;94.20;;;;;;5071305;28;20043;-71
2023/01/06 11:39:20;;;;;;;13.15;8.02;;;18.00;94.30;;;;;;5070440;28;20047;-71
2023/01/06 11:42:24;;;;;;;13.57;8.55;;;17.90;94.20;;;;;;5070576;28;20067;-71
2023/01/06 11:45:38;;;;;;;20.13;11.10;;;17.90;94.10;;;;;;5070674;28;20047;-71
2023/01/06 11:48:47;;;;;;;15.45;9.43;;;17.80;94.10;;;;;;5070864;28;20072;-71
2023/01/06 11:52:16;;;;;;;13.80;8.88;;;17.70;94.30;;;;;;5070712;28;20534;-71
2023/01/06 11:55:21;;;;;;;17.75;10.55;;;17.60;94.10;;;;;;5070731;28;20047;-71
2023/01/06 11:58:44;;;;;;;17.60;11.15;;;17.60;94.40;;;;;;5070379;28;20051;-71
2023/01/06 12:01:59;;;;;;;21.70;11.13;;;17.50;94.80;;;;;;5070495;28;20055;-71
2023/01/06 12:05:09;;;;;;;15.95;11.60;;;17.50;95.20;;;;;;5070739;28;20044;-71
2023/01/06 12:08:20;;;;;;;16.33;11.45;;;17.50;95.40;;;;;;5070772;28;20059;-71
2023/01/06 12:11:43;;;;;;;14.13;9.68;;;17.40;95.10;;;;;;5070645;28;20048;-71
2023/01/06 12:14:47;;;;;;;16.60;9.32;;;17.40;95.30;;;;;;5070929;28;20047;-71
2023/01/06 18:06:16;;;;;;;88.85;55.03;;;12.50;99.90;;;;;;2397957;28;20245;-68
2023/01/06 18:09:24;;;;;;;98.90;59.45;;;;;;;;;;5052538;28;20055;-68
2023/01/06 18:12:29;;;;;;;101.43;65.20;;;;;;;;;;5052480;28;20048;-69
2023/01/06 18:15:33;;;;;;;126.07;76.75;;;;;;;;;;5052187;28;20043;-69
2023/01/06 18:18:39;;;;;;;126.32;78.22;;;12.50;99.90;;;;;;5052492;28;20052;-69
2023/01/06 18:21:44;;;;;;;105.70;64.15;;;;;;;;;;5051617;28;20048;-69
2023/01/06 18:24:51;;;;;;;103.80;67.55;;;12.00;99.90;;;;;;5051918;28;20051;-68
2023/01/06 18:27:55;;;;;;;103.93;69.60;;;;;;;;;;5051080;28;20060;-69
2023/01/06 18:31:01;;;;;;;115.75;69.88;;;;;;;;;;5051831;28;20495;-68
2023/01/06 18:34:34;;;;;;;109.63;73.32;;;12.00;99.90;;;;;;5051840;28;20052;-69
2023/01/06 18:37:38;;;;;;;132.63;68.28;;;;;;;;;;5051670;28;20144;-68
2023/01/06 18:40:45;;;;;;;111.28;70.95;;;12.00;99.90;;;;;;5051742;28;20045;-68
2023/01/06 18:43:49;;;;;;;111.88;71.10;;;11.90;99.90;;;;;;5051568;28;20056;-69
2023/01/06 18:46:53;;;;;;;110.57;70.28;;;;;;;;;;5051803;28;20052;-69
2023/01/06 18:50:17;;;;;;;115.05;73.20;;;11.80;99.90;;;;;;5051809;28;20048;-68
2023/01/06 18:53:42;;;;;;;116.25;73.82;;;10.90;99.90;;;;;;5051561;28;20043;-68
2023/01/06 18:56:46;;;;;;;123.28;76.53;;;;;;;;;;5051470;28;20047;-68
2023/01/06 18:59:50;;;;;;;106.93;73.25;;;11.70;99.90;;;;;;5051210;28;20040;-69
2023/01/06 19:03:17;;;;;;;118.68;74.85;;;11.70;99.90;;;;;;5051097;28;20063;-68
2023/01/06 19:06:32;;;;;;;118.88;72.93;;;11.70;99.90;;;;;;5051206;28;20108;-68
2023/01/06 19:09:44;;;;;;;131.80;75.65;;;11.70;99.90;;;;;;5051239;28;20583;-68
2023/01/06 19:12:51;;;;;;;119.13;76.47;;;;;;;;;;5051106;28;20036;-68
2023/01/06 19:16:06;;;;;;;135.15;77.32;;;12.10;99.90;;;;;;5051249;28;20055;-68
2023/01/06 19:19:29;;;;;;;123.90;74.55;;;11.60;99.90;;;;;;5051076;28;20040;-68
2023/01/06 19:22:36;;;;;;;127.72;75.78;;;11.60;99.90;;;;;;5050855;28;20526;-68
2023/01/06 19:25:47;;;;;;;126.53;73.93;;;11.60;99.90;;;;;;5051039;28;20384;-68
2023/01/06 19:28:59;;;;;;;125.22;73.57;;;11.40;99.90;;;;;;5050745;28;20052;-68
2023/01/06 19:32:13;;;;;;;112.50;74.53;;;11.40;99.90;;;;;;5050932;28;20047;-69
2023/01/06 19:35:24;;;;;;;118.75;74.60;;;12.00;99.90;;;;;;5050722;28;20077;-68
2023/01/06 19:38:37;;;;;;;120.55;77.53;;;11.30;99.90;;;;;;5050680;28;20048;-68
2023/01/06 19:41:41;;;;;;;132.00;81.78;;;;;;;;;;5050720;28;20064;-68
2023/01/06 19:44:48;;;;;;;110.72;77.22;;;10.20;99.90;;;;;;5050741;28;20052;-68
2023/01/06 19:47:52;;;;;;;124.63;78.95;;;;;;;;;;5050845;28;20052;-68
2023/01/06 19:51:09;;;;;;;119.70;80.07;;;11.30;99.90;;;;;;5050325;28;20071;-68
2023/01/06 19:54:25;;;;;;;152.30;87.07;;;11.40;99.90;;;;;;5050745;28;20056;-68
2023/01/06 19:57:35;;;;;;;140.32;83.78;;;11.90;99.90;;;;;;5050632;28;20048;-68
2023/01/06 20:00:49;;;;;;;128.88;83.20;;;9.00;99.90;;;;;;5050784;28;20581;-68
2023/01/06 20:03:54;;;;;;;131.60;82.93;;;10.90;99.90;;;;;;5050277;28;20055;-68
2023/01/06 20:07:00;;;;;;;119.55;83.38;;;11.00;99.90;;;;;;5050451;28;20044;-68
2023/01/06 20:10:05;;;;;;;126.88;85.90;;;11.00;99.90;;;;;;5050325;28;20052;-68
2023/01/06 20:13:12;;;;;;;134.20;91.22;;;11.10;99.90;;;;;;5050260;28;20048;-68
2023/01/06 20:16:17;;;;;;;123.57;84.65;;;11.10;99.90;;;;;;5049273;28;20111;-68
2023/01/06 20:19:21;;;;;;;121.15;79.32;;;;;;;;;;5050398;28;20044;-68
2023/01/06 20:22:25;;;;;;;122.88;75.57;;;10.90;99.90;;;;;;5050243;28;20071;-68
2023/01/06 20:25:32;;;;;;;123.88;76.82;;;10.80;99.90;;;;;;5050309;28;20517;-68
2023/01/06 20:28:36;;;;;;;132.93;88.22;;;;;;;;;;5050475;28;20444;-68
2023/01/06 20:31:41;;;;;;;132.80;85.78;;;;;;;;;;5050184;28;20044;-68
2023/01/06 20:34:44;;;;;;;134.93;88.90;;;10.70;99.90;;;;;;5050351;28;20040;-68
2023/01/06 20:37:52;;;;;;;161.40;108.28;;;;;;;;;;5049980;28;20044;-68
2023/01/06 20:40:56;;;;;;;146.10;94.00;;;11.30;99.90;;;;;;5049978;28;20044;-68
2023/01/06 20:44:00;;;;;;;160.85;102.53;;;;;;;;;;5050117;28;20071;-68
2023/01/06 20:47:05;;;;;;;157.30;103.10;;;;;;;;;;5050363;28;20044;-68
2023/01/06 20:50:12;;;;;;;164.38;107.97;;;;;;;;;;5051357;28;20047;-68
2023/01/06 20:53:16;;;;;;;179.48;119.85;;;10.50;99.90;;;;;;5052843;28;20047;-68
2023/01/06 20:56:20;;;;;;;198.23;133.32;;;10.60;99.90;;;;;;5053779;28;20040;-68
2023/01/06 20:59:24;;;;;;;203.65;139.88;;;10.50;99.90;;;;;;5053798;28;20049;-68
2023/01/06 21:02:28;;;;;;;201.18;136.27;;;;;;;;;;5053409;28;20048;-68
2023/01/06 21:05:33;;;;;;;213.55;146.65;;;10.50;99.90;;;;;;5053385;28;20044;-68
2023/01/06 21:08:37;;;;;;;190.48;128.02;;;;;;;;;;5053103;28;20052;-68
2023/01/06 21:11:40;;;;;;;188.20;127.47;;;10.50;99.90;;;;;;5053386;28;20040;-68
2023/01/06 21:14:45;;;;;;;215.07;141.20;;;;;;;;;;5053298;28;20043;-68
2023/01/06 21:17:49;;;;;;;208.00;141.48;;;;;;;;;;5053414;28;20499;-68
2023/01/06 21:20:54;;;;;;;205.57;137.48;;;;;;;;;;5053562;28;20396;-68
2023/01/06 21:23:59;;;;;;;194.45;127.95;;;10.60;99.90;;;;;;5053437;28;20056;-68
2023/01/06 21:27:02;;;;;;;195.23;127.47;;;10.40;99.90;;;;;;5053083;28;20051;-68
2023/01/06 21:30:07;;;;;;;197.85;133.25;;;10.40;99.90;;;;;;5053369;28;20341;-68
2023/01/06 21:33:12;;;;;;;183.00;122.85;;;;;;;;;;5053035;28;20048;-68
2023/01/06 21:36:16;;;;;;;191.10;128.57;;;;;;;;;;5053261;28;20052;-68
2023/01/06 21:39:21;;;;;;;225.65;150.95;;;;;;;;;;5053085;28;20052;-68
2023/01/06 21:45:48;;;;;;;227.90;151.68;;;;;;;;;;5052909;28;20040;-68
2023/01/06 21:48:52;;;;;;;240.95;164.05;;;;;;;;;;5053031;28;20048;-68
2023/01/06 21:51:57;;;;;;;219.82;149.88;;;;;;;;;;5052940;28;20044;-68
2023/01/06 21:55:01;;;;;;;267.50;172.45;;;10.20;99.90;;;;;;5052832;28;20055;-68
2023/01/06 21:58:05;;;;;;;259.55;173.77;;;;;;;;;;5052824;28;20516;-68
2023/01/06 22:01:09;;;;;;;238.88;159.18;;;10.50;99.90;;;;;;5052317;28;20045;-68
2023/01/06 22:04:13;;;;;;;248.88;169.70;;;;;;;;;;5052554;28;20057;-68
2023/01/06 22:07:18;;;;;;;243.00;160.60;;;;;;;;;;5052627;28;20060;-68
2023/01/06 22:10:24;;;;;;;216.13;147.02;;;10.20;99.90;;;;;;5052124;28;20131;-68
2023/01/06 22:13:31;;;;;;;234.82;157.07;;;10.80;99.90;;;;;;5052566;28;20523;-69
2023/01/06 22:16:37;;;;;;;216.77;151.30;;;10.80;99.90;;;;;;5052907;28;20044;-68
2023/01/06 22:19:43;;;;;;;229.27;155.60;;;;;;;;;;5051747;28;20044;-68
2023/01/06 22:22:47;;;;;;;243.27;159.57;;;10.20;99.90;;;;;;5052206;28;20072;-68
2023/01/06 22:25:52;;;;;;;222.75;148.63;;;;;;;;;;5052244;28;20099;-68
2023/01/06 22:28:56;;;;;;;210.13;144.75;;;;;;;;;;5052363;28;20063;-68
2023/01/06 22:32:01;;;;;;;203.15;140.60;;;;;;;;;;5052191;28;20507;-68